Time;durP1;ratioP1;P1;durP2;ratioP2;P2;SDS_P1;SDS_P2;PMS_P1;PMS_P2;Temp;Humidity;BMP_temperature;BMP_pressure;BME280_temperature;BME280_humidity;BME280_pressure;Samples;Min_cycle;Max_cycle;Signal;HPM_P1;HPM_P2
2023/01/24 00:00:43;;;;;;;29.45;23.08;;;;;;;0.80;100.00;103600.00;6233767;23;20012;-80
2023/01/24 00:03:12;;;;;;;27.95;21.75;;;;;;;0.81;100.00;103604.41;6235007;23;20016;-81
2023/01/24 00:05:41;;;;;;;27.35;22.90;;;;;;;0.82;100.00;103614.03;6236022;23;20000;-81
2023/01/24 00:08:07;;;;;;;26.33;22.33;;;;;;;0.77;100.00;103594.66;6230870;23;20020;-81
2023/01/24 00:10:32;;;;;;;25.20;21.50;;;;;;;0.83;100.00;103613.19;6233914;23;20003;-81
2023/01/24 00:12:58;;;;;;;26.00;22.38;;;;;;;0.84;100.00;103616.75;6235287;23;20012;-82
2023/01/24 00:15:23;;;;;;;25.13;22.02;;;;;;;0.82;100.00;103610.53;6234444;23;20077;-82
2023/01/24 00:17:48;;;;;;;25.70;22.10;;;;;;;0.79;100.00;103603.44;6207864;23;20040;-81
2023/01/24 00:20:14;;;;;;;26.40;22.27;;;;;;;0.82;100.00;103611.41;6209141;23;20005;-82
2023/01/24 00:22:40;;;;;;;27.63;22.45;;;;;;;0.82;100.00;103607.91;6210082;23;20035;-81
2023/01/24 00:25:05;;;;;;;26.40;22.05;;;;;;;0.77;100.00;103599.91;6184138;23;20454;-82
2023/01/24 00:27:31;;;;;;;26.90;22.10;;;;;;;0.78;100.00;103593.81;6209537;23;20028;-81
2023/01/24 00:29:57;;;;;;;25.80;21.63;;;;;;;0.85;100.00;103594.91;6208809;23;20004;-81
2023/01/24 00:32:23;;;;;;;27.73;22.27;;;;;;;0.84;100.00;103594.03;6208753;23;20008;-83
2023/01/24 00:34:48;;;;;;;25.15;21.27;;;;;;;0.88;100.00;103595.91;6183593;23;20018;-82
2023/01/24 00:37:13;;;;;;;24.48;21.05;;;;;;;0.85;100.00;103590.56;6210019;23;20473;-82
2023/01/24 00:39:38;;;;;;;26.05;21.70;;;;;;;0.81;100.00;103587.78;6208475;23;20087;-81
2023/01/24 00:42:04;;;;;;;26.30;21.23;;;;;;;0.79;100.00;103586.81;6208721;23;20028;-82
2023/01/24 00:44:29;;;;;;;26.05;21.67;;;;;;;0.80;100.00;103581.66;6207830;23;20095;-81
2023/01/24 00:46:54;;;;;;;25.77;20.85;;;;;;;0.83;100.00;103583.47;6203516;23;20086;-82
2023/01/24 00:49:20;;;;;;;25.23;20.80;;;;;;;0.83;100.00;103593.94;6207397;23;20481;-81
2023/01/24 00:51:45;;;;;;;25.55;20.88;;;;;;;0.81;100.00;103580.81;6205366;23;20661;-82
2023/01/24 00:54:11;;;;;;;24.55;21.45;;;;;;;0.83;100.00;103575.59;6207688;23;20087;-81
2023/01/24 00:56:36;;;;;;;25.35;20.77;;;;;;;0.81;100.00;103572.94;6207685;23;20099;-82
2023/01/24 00:59:01;;;;;;;24.98;20.10;;;;;;;0.81;100.00;103566.81;6180974;23;20008;-82
2023/01/24 01:01:27;;;;;;;23.98;20.50;;;;;;;0.82;100.00;103573.81;6205308;23;20381;-82
2023/01/24 01:03:56;;;;;;;23.50;19.65;;;;;;;0.80;100.00;103586.00;6207847;23;20027;-82
2023/01/24 01:06:21;;;;;;;23.33;19.80;;;;;;;0.79;100.00;103578.97;6207317;23;20004;-82
2023/01/24 01:08:47;;;;;;;24.13;20.00;;;;;;;0.79;100.00;103574.59;6207808;23;20008;-82
2023/01/24 01:11:12;;;;;;;25.30;20.67;;;;;;;0.77;100.00;103575.41;6206373;23;20265;-82
2023/01/24 01:13:37;;;;;;;23.67;19.95;;;;;;;0.78;100.00;103572.81;6207154;23;20212;-82
2023/01/24 01:16:05;;;;;;;23.85;20.27;;;;;;;0.74;100.00;103571.84;6206907;23;20079;-82
2023/01/24 01:18:32;;;;;;;22.65;19.92;;;;;;;0.78;100.00;103572.81;6207797;23;20061;-82
2023/01/24 01:20:57;;;;;;;25.15;20.85;;;;;;;0.78;100.00;103578.06;6180654;23;20009;-82
2023/01/24 01:23:23;;;;;;;23.80;20.23;;;;;;;0.77;100.00;103568.44;6207896;23;20007;-80
2023/01/24 01:25:48;;;;;;;24.95;21.23;;;;;;;0.81;100.00;103574.69;6208104;23;20028;-82
2023/01/24 01:28:13;;;;;;;23.95;20.25;;;;;;;0.79;100.00;103569.34;6180486;23;20008;-82
2023/01/24 01:30:39;;;;;;;25.13;20.65;;;;;;;0.82;100.00;103573.81;6207013;23;20004;-82
2023/01/24 01:33:04;;;;;;;23.90;20.02;;;;;;;0.83;100.00;103576.50;6207175;23;20011;-82
2023/01/24 01:35:29;;;;;;;23.70;20.20;;;;;;;0.81;100.00;103575.56;6207426;23;20005;-82
2023/01/24 01:37:54;;;;;;;24.33;19.75;;;;;;;0.81;100.00;103578.19;6205688;23;20022;-81
2023/01/24 01:40:20;;;;;;;26.33;21.55;;;;;;;0.82;100.00;103576.44;6206195;23;20009;-81
2023/01/24 01:42:54;;;;;;;24.33;20.63;;;;;;;0.86;100.00;103581.84;6180529;23;20438;-81
2023/01/24 01:45:33;;;;;;;25.58;21.10;;;;;;;0.85;100.00;103582.69;6206633;23;20004;-81
2023/01/24 01:48:01;;;;;;;25.48;21.20;;;;;;;0.82;100.00;103577.34;6207502;23;20355;-80
2023/01/24 01:50:35;;;;;;;24.80;20.48;;;;;;;0.81;100.00;103577.31;6206111;23;20490;-81
2023/01/24 01:53:01;;;;;;;24.65;21.40;;;;;;;0.83;100.00;103578.22;6207150;23;20008;-80
2023/01/24 01:55:33;;;;;;;26.70;22.08;;;;;;;0.84;100.00;103582.66;6211827;23;20039;-79
2023/01/24 01:58:01;;;;;;;25.98;22.08;;;;;;;0.82;100.00;103585.19;6232772;23;20000;-80
2023/01/24 02:00:27;;;;;;;26.42;21.55;;;;;;;0.81;100.00;103580.81;6232656;23;20013;-78
2023/01/24 02:03:37;;;;;;;25.75;21.08;;;;;;;0.76;100.00;103577.16;6220997;23;20008;-80
2023/01/24 02:05:44;;;;;;;25.92;21.52;;;;;;;0.81;100.00;103582.53;6206953;23;20557;-80
2023/01/24 02:08:15;;;;;;;26.60;21.83;;;;;;;0.79;100.00;103578.97;6205527;23;20482;-79
2023/01/24 02:13:25;;;;;;;28.58;23.73;;;;;;;0.74;100.00;103570.94;6208705;23;20396;-80
2023/01/24 02:16:05;;;;;;;28.55;23.48;;;;;;;0.74;100.00;103574.44;6208415;23;20004;-80
2023/01/24 02:18:33;;;;;;;28.38;23.42;;;;;;;0.74;100.00;103578.81;6207067;23;20004;-80
2023/01/24 02:20:58;;;;;;;26.98;22.40;;;;;;;0.78;100.00;103574.56;6194940;23;20348;-80
2023/01/24 02:23:50;;;;;;;28.73;24.15;;;;;;;0.79;100.00;103573.72;6235338;23;20003;-80
2023/01/24 02:26:23;;;;;;;28.40;23.48;;;;;;;0.76;100.00;103569.28;6235826;23;20047;-80
2023/01/24 02:28:56;;;;;;;28.08;23.58;;;;;;;0.75;100.00;103572.72;6212142;23;20008;-80
2023/01/24 02:31:23;;;;;;;28.92;24.13;;;;;;;0.74;100.00;103565.69;6205762;23;20040;-80
2023/01/24 02:33:48;;;;;;;27.73;23.40;;;;;;;0.73;100.00;103566.56;6207046;23;20422;-81
2023/01/24 02:36:32;;;;;;;27.27;23.17;;;;;;;0.71;100.00;103570.84;6208659;23;20015;-80
2023/01/24 02:39:15;;;;;;;27.98;23.73;;;;;;;0.72;100.00;103575.25;6208551;23;20030;-81
2023/01/24 02:41:59;;;;;;;29.08;24.65;;;;;;;0.66;100.00;103568.06;6207162;23;20008;-80
2023/01/24 02:44:37;;;;;;;;;;;;;;;0.74;100.00;103577.06;6206361;23;20009;-80
2023/01/24 02:47:03;;;;;;;27.45;23.25;;;;;;;0.69;100.00;103572.53;6180008;23;19912;-80
2023/01/24 02:49:29;;;;;;;29.20;23.85;;;;;;;0.70;100.00;103569.06;6206626;23;20072;-80
2023/01/24 02:54:39;;;;;;;29.48;23.25;;;;;;;0.69;100.00;103564.66;6206603;23;20391;-80
2023/01/24 02:59:48;;;;;;;;;;;;;;;0.71;100.00;103577.00;6205819;23;20019;-80
2023/01/24 03:02:13;;;;;;;28.73;22.67;;;;;;;0.67;100.00;103582.97;6204250;23;19904;-80
2023/01/24 03:04:38;;;;;;;26.95;22.00;;;;;;;0.64;100.00;103582.88;6207344;23;20032;-80
2023/01/24 03:07:04;;;;;;;26.63;22.10;;;;;;;0.64;100.00;103575.00;6205339;23;20642;-80
2023/01/24 03:09:35;;;;;;;27.42;21.83;;;;;;;0.62;100.00;103573.16;6177374;23;20001;-80
2023/01/24 03:36:39;;;;;;;;;;;;;;;0.58;100.00;103559.03;6205048;23;20457;-81
2023/01/24 03:41:48;;;;;;;28.17;22.98;;;;;;;0.52;100.00;103558.84;6205312;23;20019;-80
2023/01/24 03:44:13;;;;;;;28.10;22.42;;;;;;;0.52;100.00;103565.81;6204838;23;20024;-80
2023/01/24 03:46:39;;;;;;;28.50;23.55;;;;;;;0.49;100.00;103558.75;6203610;23;20059;-80
2023/01/24 03:49:06;;;;;;;27.05;23.35;;;;;;;0.47;100.00;103566.56;6175638;23;20751;-80
2023/01/24 03:54:15;;;;;;;28.33;23.58;;;;;;;0.46;100.00;103563.88;6202602;23;20625;-81
2023/01/24 03:56:40;;;;;;;27.77;22.98;;;;;;;0.43;100.00;103553.31;6202505;23;20001;-80
2023/01/24 03:59:06;;;;;;;28.20;23.35;;;;;;;0.46;100.00;103563.88;6202657;23;20058;-80
2023/01/24 04:01:31;;;;;;;26.90;23.23;;;;;;;0.41;100.00;103555.84;6214166;23;20008;-80
2023/01/24 04:03:57;;;;;;;27.45;23.85;;;;;;;0.44;100.00;103561.22;6229475;23;20042;-80
2023/01/24 04:06:23;;;;;;;28.52;24.10;;;;;;;0.40;100.00;103556.69;6229860;23;20067;-79
2023/01/24 04:08:49;;;;;;;29.17;24.42;;;;;;;0.45;100.00;103567.34;6213450;23;20001;-80
2023/01/24 04:11:14;;;;;;;28.25;22.92;;;;;;;0.39;100.00;103556.66;6205103;23;20075;-80
2023/01/24 04:13:40;;;;;;;28.27;23.80;;;;;;;0.40;100.00;103569.81;6206392;23;20013;-80
2023/01/24 04:16:06;;;;;;;27.42;23.33;;;;;;;0.41;100.00;103565.44;6207174;23;20016;-80
2023/01/24 04:18:32;;;;;;;27.67;22.98;;;;;;;0.42;100.00;103575.13;6207249;23;20055;-80
2023/01/24 04:21:01;;;;;;;26.60;23.00;;;;;;;0.40;100.00;103563.66;6206873;23;20351;-80
2023/01/24 04:23:26;;;;;;;28.00;23.25;;;;;;;0.41;100.00;103565.44;6204707;23;20454;-80
2023/01/24 04:25:56;;;;;;;27.50;23.58;;;;;;;0.41;100.00;103568.94;6205853;23;20047;-80
2023/01/24 04:28:23;;;;;;;26.90;23.08;;;;;;;0.40;100.00;103564.56;6205512;23;20001;-80
2023/01/24 04:30:48;;;;;;;27.42;23.45;;;;;;;0.41;100.00;103566.34;6179630;23;20005;-80
2023/01/24 04:33:14;;;;;;;26.45;23.50;;;;;;;0.39;100.00;103578.50;6178262;23;20022;-80
2023/01/24 04:35:39;;;;;;;28.10;23.27;;;;;;;0.39;100.00;103565.41;6205322;23;20008;-80
2023/01/24 04:38:05;;;;;;;27.75;24.00;;;;;;;0.40;100.00;103561.94;6222616;23;20020;-81
2023/01/24 04:40:30;;;;;;;28.33;23.65;;;;;;;0.38;100.00;103563.63;6233977;23;20008;-80
2023/01/24 04:42:57;;;;;;;27.75;23.95;;;;;;;0.38;100.00;103566.25;6207277;23;20078;-81
2023/01/24 04:45:22;;;;;;;28.42;23.75;;;;;;;0.38;100.00;103554.88;6212056;23;20086;-81
2023/01/24 04:47:47;;;;;;;27.23;23.48;;;;;;;0.38;100.00;103566.25;6206993;23;20017;-80
2023/01/24 04:50:13;;;;;;;28.80;23.90;;;;;;;0.39;100.00;103572.38;6204779;23;20005;-80
2023/01/24 04:52:38;;;;;;;28.15;23.50;;;;;;;0.39;100.00;103568.03;6206943;23;20012;-80
2023/01/24 04:55:04;;;;;;;28.88;23.67;;;;;;;0.37;100.00;103572.31;6180566;23;20032;-80
2023/01/24 04:57:29;;;;;;;27.20;23.20;;;;;;;0.39;100.00;103572.38;6207303;23;20009;-80
2023/01/24 04:59:54;;;;;;;28.48;23.67;;;;;;;0.37;100.00;103569.69;6205933;23;20004;-80
2023/01/24 05:02:20;;;;;;;27.30;23.95;;;;;;;0.37;100.00;103574.94;6205133;23;20461;-81
2023/01/24 05:04:45;;;;;;;29.75;25.73;;;;;;;0.37;100.00;103564.44;6206646;23;20016;-81
2023/01/24 05:07:11;;;;;;;29.73;25.67;;;;;;;0.38;100.00;103576.72;6179125;23;20034;-80
2023/01/24 05:09:36;;;;;;;30.25;25.15;;;;;;;0.34;100.00;103566.97;6179218;23;20326;-81
2023/01/24 05:12:01;;;;;;;28.88;25.13;;;;;;;0.35;100.00;103570.50;6206719;23;20015;-81
2023/01/24 05:14:27;;;;;;;27.25;24.08;;;;;;;0.36;100.00;103574.88;6203263;23;20008;-81
2023/01/24 05:16:52;;;;;;;27.70;24.30;;;;;;;0.30;100.00;103561.59;6199385;23;20035;-81
2023/01/24 05:19:17;;;;;;;28.55;24.17;;;;;;;0.35;100.00;103571.38;6206341;23;20009;-81
2023/01/24 05:21:43;;;;;;;30.70;26.00;;;;;;;0.35;100.00;103579.22;6206822;23;20001;-81
2023/01/24 05:24:08;;;;;;;28.83;25.20;;;;;;;0.30;100.00;103565.09;6206537;23;20088;-81
2023/01/24 05:26:33;;;;;;;28.88;25.40;;;;;;;0.30;100.00;103583.44;6207797;23;20005;-81
2023/01/24 05:28:59;;;;;;;28.45;25.23;;;;;;;0.32;100.00;103575.63;6205975;23;20001;-81
2023/01/24 05:31:24;;;;;;;30.73;26.05;;;;;;;0.32;100.00;103580.84;6207272;23;20008;-81
2023/01/24 05:33:49;;;;;;;30.55;26.05;;;;;;;0.30;100.00;103583.44;6207562;23;20007;-82
2023/01/24 05:36:18;;;;;;;30.15;25.52;;;;;;;0.31;100.00;103585.19;6207424;23;20034;-80
2023/01/24 05:38:44;;;;;;;29.02;25.63;;;;;;;0.31;100.00;103587.81;6205708;23;20008;-80
2023/01/24 05:41:11;;;;;;;29.10;24.60;;;;;;;0.32;100.00;103586.09;6205015;23;20475;-80
2023/01/24 05:43:37;;;;;;;30.88;26.25;;;;;;;0.31;100.00;103585.19;6206559;23;20011;-81
2023/01/24 05:46:04;;;;;;;28.70;25.55;;;;;;;0.27;100.00;103575.44;6205579;23;20347;-81
2023/01/24 05:48:30;;;;;;;30.05;25.73;;;;;;;0.33;100.00;103588.75;6206617;23;20007;-81
2023/01/24 05:50:57;;;;;;;29.20;25.23;;;;;;;0.33;100.00;103604.47;6206543;23;20008;-80
2023/01/24 05:53:23;;;;;;;30.75;25.67;;;;;;;0.33;100.00;103594.00;6179884;23;20008;-81
2023/01/24 05:55:54;;;;;;;29.95;25.83;;;;;;;0.34;100.00;103598.41;6205029;23;20008;-79
2023/01/24 05:58:19;;;;;;;29.00;24.85;;;;;;;0.31;100.00;103590.44;6205190;23;20009;-80
2023/01/24 06:00:44;;;;;;;30.08;25.08;;;;;;;0.32;100.00;103605.31;6178913;23;20480;-80
2023/01/24 06:03:10;;;;;;;30.33;25.83;;;;;;;0.31;100.00;103614.03;6204228;23;20008;-81
2023/01/24 06:05:35;;;;;;;28.98;24.58;;;;;;;0.33;100.00;103608.81;6177469;23;20016;-80
2023/01/24 06:08:00;;;;;;;31.13;25.80;;;;;;;0.30;100.00;103608.75;6207589;23;20027;-81
2023/01/24 06:10:25;;;;;;;28.63;24.13;;;;;;;0.29;100.00;103607.81;6227329;23;20386;-80
2023/01/24 06:12:51;;;;;;;28.27;24.10;;;;;;;0.28;100.00;103619.13;6204842;23;20015;-80
2023/01/24 06:15:16;;;;;;;27.52;24.35;;;;;;;0.23;100.00;103610.22;6229248;23;20111;-80
2023/01/24 06:17:41;;;;;;;28.77;24.00;;;;;;;0.28;100.00;103619.13;6208070;23;20150;-80
2023/01/24 06:20:10;;;;;;;28.30;23.73;;;;;;;0.24;100.00;103622.50;6206788;23;20012;-84
2023/01/24 06:22:44;;;;;;;29.10;23.83;;;;;;;0.26;100.00;103617.31;6210237;23;20024;-82
2023/01/24 06:25:21;;;;;;;27.38;22.25;;;;;;;0.23;100.00;103618.97;6216530;23;20061;-80
2023/01/24 06:27:48;;;;;;;28.02;23.02;;;;;;;0.23;100.00;103616.34;6231184;23;20519;-79
2023/01/24 06:30:14;;;;;;;27.60;23.00;;;;;;;0.25;100.00;103624.25;6231256;23;20000;-80
2023/01/24 06:33:16;;;;;;;26.52;22.52;;;;;;;0.26;100.00;103626.06;6230650;23;20008;-80
2023/01/24 06:35:54;;;;;;;28.48;22.95;;;;;;;0.23;100.00;103628.56;6224650;23;20005;-80
2023/01/24 06:38:22;;;;;;;27.20;22.50;;;;;;;0.20;100.00;103631.06;6207218;23;20050;-80
2023/01/24 06:40:54;;;;;;;26.80;21.90;;;;;;;0.19;100.00;103635.41;6208237;23;20430;-80
2023/01/24 06:43:20;;;;;;;26.35;22.02;;;;;;;0.22;100.00;103630.31;6207134;23;20490;-81
2023/01/24 06:45:45;;;;;;;26.15;21.95;;;;;;;0.17;100.00;103630.97;6207738;23;20071;-81
2023/01/24 06:48:11;;;;;;;27.27;22.55;;;;;;;0.20;100.00;103634.56;6206337;23;20008;-81
2023/01/24 06:50:36;;;;;;;26.25;21.25;;;;;;;0.18;100.00;103624.91;6217896;23;20064;-80
2023/01/24 06:53:01;;;;;;;24.38;20.63;;;;;;;0.21;100.00;103640.75;6235496;23;20024;-80
2023/01/24 06:55:27;;;;;;;26.05;21.73;;;;;;;0.17;100.00;103634.50;6236481;23;20000;-81
2023/01/24 06:57:56;;;;;;;25.15;20.90;;;;;;;0.17;100.00;103633.59;6219996;23;20008;-81
2023/01/24 07:00:22;;;;;;;25.10;20.98;;;;;;;0.17;100.00;103639.72;6208030;23;20004;-81
2023/01/24 07:02:47;;;;;;;25.98;21.83;;;;;;;0.16;100.00;103642.28;6205527;23;20011;-81
2023/01/24 07:05:12;;;;;;;25.30;21.58;;;;;;;0.15;100.00;103632.63;6209069;23;20320;-79
2023/01/24 07:07:38;;;;;;;25.33;20.58;;;;;;;0.13;100.00;103636.94;6211279;23;20024;-80
2023/01/24 07:10:04;;;;;;;24.42;20.38;;;;;;;0.13;100.00;103642.19;6182479;23;20322;-80
2023/01/24 07:12:30;;;;;;;25.88;20.67;;;;;;;0.10;100.00;103636.81;6180493;23;20004;-79
2023/01/24 07:14:55;;;;;;;24.60;20.50;;;;;;;0.08;100.00;103636.75;6206930;23;20067;-80
2023/01/24 07:17:21;;;;;;;26.17;21.73;;;;;;;0.11;100.00;103638.59;6204499;23;20199;-80
2023/01/24 07:19:46;;;;;;;25.48;21.10;;;;;;;0.09;100.00;103648.13;6207398;23;20066;-80
2023/01/24 07:22:12;;;;;;;25.75;21.55;;;;;;;0.10;100.00;103649.91;6206963;23;20080;-80
2023/01/24 07:24:38;;;;;;;26.83;22.23;;;;;;;0.05;100.00;103641.00;6206672;23;20005;-80
2023/01/24 07:27:04;;;;;;;28.02;22.27;;;;;;;0.09;100.00;103663.84;6206388;23;20009;-80
2023/01/24 07:29:29;;;;;;;26.67;21.50;;;;;;;0.12;100.00;103663.94;6206598;23;20011;-80
2023/01/24 07:31:55;;;;;;;26.33;21.50;;;;;;;0.06;100.00;103661.09;6205661;23;20001;-80
2023/01/24 07:34:20;;;;;;;25.88;21.42;;;;;;;0.11;100.00;103670.91;6206332;23;20008;-80
2023/01/24 07:36:46;;;;;;;24.50;21.42;;;;;;;0.10;100.00;103674.38;6206763;23;20008;-81
2023/01/24 07:39:12;;;;;;;25.98;21.63;;;;;;;0.06;100.00;103676.81;6206163;23;20030;-81
2023/01/24 07:41:38;;;;;;;25.90;21.33;;;;;;;0.09;100.00;103682.19;6208515;23;20084;-80
2023/01/24 07:44:05;;;;;;;24.75;20.60;;;;;;;0.08;100.00;103686.50;6207625;23;20637;-81
2023/01/24 07:46:32;;;;;;;26.35;22.40;;;;;;;0.10;100.00;103684.84;6179853;23;20043;-80
2023/01/24 07:48:58;;;;;;;25.35;21.17;;;;;;;0.09;100.00;103690.94;6179560;23;20013;-81
2023/01/24 07:51:23;;;;;;;25.42;21.38;;;;;;;0.08;100.00;103680.38;6205892;23;20004;-81
2023/01/24 07:53:48;;;;;;;25.98;21.33;;;;;;;0.08;100.00;103691.75;6206363;23;20008;-81
2023/01/24 07:56:15;;;;;;;26.65;21.60;;;;;;;0.10;100.00;103692.72;6205770;23;20000;-81
2023/01/24 07:58:41;;;;;;;26.15;21.17;;;;;;;0.09;100.00;103693.56;6203902;23;20033;-81
2023/01/24 08:01:06;;;;;;;25.42;20.83;;;;;;;0.12;100.00;103692.75;6206717;23;20752;-81
2023/01/24 08:03:31;;;;;;;23.80;20.17;;;;;;;0.11;100.00;103690.97;6206864;23;20011;-81
2023/01/24 08:05:57;;;;;;;25.83;20.55;;;;;;;0.12;100.00;103700.59;6180702;23;20047;-81
2023/01/24 08:08:22;;;;;;;26.73;21.30;;;;;;;0.08;100.00;103694.34;6206210;23;20008;-80
2023/01/24 08:10:47;;;;;;;25.35;20.60;;;;;;;0.11;100.00;103702.34;6206246;23;20008;-81
2023/01/24 08:13:12;;;;;;;25.67;21.25;;;;;;;0.14;100.00;103702.47;6206714;23;20167;-81
2023/01/24 08:15:38;;;;;;;25.13;21.27;;;;;;;0.05;100.00;103685.53;6209813;23;20015;-82
2023/01/24 08:18:04;;;;;;;26.13;20.77;;;;;;;0.12;100.00;103698.00;6230910;23;20036;-80
2023/01/24 08:20:29;;;;;;;26.30;21.23;;;;;;;0.13;100.00;103710.28;6233511;23;20008;-81
2023/01/24 08:22:57;;;;;;;26.73;21.05;;;;;;;0.11;100.00;103702.34;6235196;23;20466;-88
2023/01/24 08:25:24;;;;;;;27.17;22.15;;;;;;;0.02;100.00;103693.25;6231884;23;20005;-86
2023/01/24 08:27:50;;;;;;;24.30;20.20;;;;;;;0.07;100.00;103699.53;6233684;23;19996;-86
2023/01/24 08:30:15;;;;;;;25.48;20.92;;;;;;;0.10;100.00;103716.28;6226289;23;20009;-87
2023/01/24 08:32:41;;;;;;;25.50;21.10;;;;;;;0.13;100.00;103705.03;6219284;23;20055;-86
2023/01/24 08:35:06;;;;;;;27.88;21.80;;;;;;;0.10;100.00;103699.66;6217171;23;20075;-87
2023/01/24 08:37:32;;;;;;;25.27;21.60;;;;;;;0.13;100.00;103711.16;6210127;23;20024;-82
2023/01/24 08:39:57;;;;;;;24.70;21.10;;;;;;;0.14;100.00;103712.06;6208900;23;20004;-82
2023/01/24 08:42:23;;;;;;;26.48;21.77;;;;;;;0.14;100.00;103705.09;6210535;23;20062;-84
2023/01/24 08:44:49;;;;;;;24.20;20.60;;;;;;;0.16;100.00;103724.34;6209541;23;20455;-82
2023/01/24 08:47:14;;;;;;;25.73;21.30;;;;;;;0.13;100.00;103710.28;6208478;23;20012;-81
2023/01/24 08:49:40;;;;;;;23.90;19.88;;;;;;;0.13;100.00;103712.91;6179673;23;20075;-81
2023/01/24 08:52:05;;;;;;;24.92;20.88;;;;;;;0.17;100.00;103727.91;6207877;23;20013;-81
2023/01/24 08:54:35;;;;;;;26.95;22.15;;;;;;;0.18;100.00;103727.94;6208568;23;20000;-82
2023/01/24 08:57:04;;;;;;;25.77;21.23;;;;;;;0.12;100.00;103713.69;6208036;23;20004;-81
2023/01/24 08:59:29;;;;;;;26.15;20.88;;;;;;;0.20;100.00;103730.59;6225064;23;20008;-81
2023/01/24 09:01:55;;;;;;;26.00;21.02;;;;;;;0.19;100.00;103731.44;6235831;23;20024;-81
2023/01/24 09:04:20;;;;;;;23.45;20.20;;;;;;;0.22;100.00;103736.81;6209400;23;20008;-81
2023/01/24 09:06:46;;;;;;;24.70;21.02;;;;;;;0.26;100.00;103736.09;6216232;23;20031;-82
2023/01/24 09:09:11;;;;;;;25.50;19.77;;;;;;;0.27;100.00;103743.13;6188546;23;20004;-82
2023/01/24 09:11:36;;;;;;;24.13;20.25;;;;;;;0.28;100.00;103730.91;6213350;23;20354;-81
2023/01/24 09:14:02;;;;;;;23.15;18.98;;;;;;;0.27;100.00;103736.97;6210051;23;20001;-81
2023/01/24 09:16:27;;;;;;;23.50;19.90;;;;;;;0.29;100.00;103744.03;6211424;23;20051;-81
2023/01/24 09:18:54;;;;;;;23.08;19.42;;;;;;;0.27;100.00;103732.63;6210233;23;20054;-81
2023/01/24 09:21:20;;;;;;;24.88;20.17;;;;;;;0.33;100.00;103743.31;6208863;23;20513;-81
2023/01/24 09:23:45;;;;;;;22.30;18.80;;;;;;;0.32;100.00;103735.44;6209743;23;20007;-81
2023/01/24 09:26:11;;;;;;;21.73;18.00;;;;;;;0.29;100.00;103730.06;6209686;23;20011;-81
2023/01/24 09:28:36;;;;;;;23.38;18.70;;;;;;;0.30;100.00;103732.75;6209193;23;20001;-81
2023/01/24 09:31:02;;;;;;;24.67;19.00;;;;;;;0.34;100.00;103736.38;6208425;23;20086;-81
2023/01/24 09:33:28;;;;;;;22.20;18.70;;;;;;;0.35;100.00;103735.56;6207926;23;20307;-81
2023/01/24 09:36:00;;;;;;;24.25;19.88;;;;;;;0.36;100.00;103748.69;6208996;23;20006;-81
2023/01/24 09:38:27;;;;;;;23.85;19.70;;;;;;;0.35;100.00;103744.28;6207393;23;20062;-81
2023/01/24 09:41:08;;;;;;;23.90;19.50;;;;;;;0.38;100.00;103748.78;6208633;23;20489;-81
2023/01/24 09:43:42;;;;;;;24.15;19.42;;;;;;;0.42;100.00;103751.56;6207846;23;20022;-81
2023/01/24 09:46:20;;;;;;;21.27;17.25;;;;;;;0.41;100.00;103739.28;6206802;23;20016;-81
2023/01/24 09:48:49;;;;;;;22.17;18.65;;;;;;;0.46;100.00;103742.06;6218178;23;20005;-82
2023/01/24 09:51:24;;;;;;;20.58;17.75;;;;;;;0.47;100.00;103741.25;6235980;23;20008;-81
2023/01/24 09:53:53;;;;;;;21.05;17.85;;;;;;;0.53;100.00;103743.19;6236406;23;20015;-82
2023/01/24 09:56:30;;;;;;;23.13;18.80;;;;;;;0.57;100.00;103743.34;6234941;23;20019;-81
2023/01/24 09:59:44;;;;;;;22.00;18.70;;;;;;;0.63;100.00;103750.56;6214914;23;20279;-81
2023/01/24 10:02:17;;;;;;;21.30;17.45;;;;;;;0.61;100.00;103760.97;6174478;23;20509;-81
2023/01/24 10:04:44;;;;;;;19.88;17.00;;;;;;;0.61;100.00;103754.84;6206783;23;20015;-81
2023/01/24 10:07:32;;;;;;;19.85;17.40;;;;;;;0.64;100.00;103755.88;6207150;23;20005;-81
2023/01/24 10:10:05;;;;;;;21.67;17.92;;;;;;;0.68;100.00;103756.88;6208918;23;20128;-81
2023/01/24 10:12:42;;;;;;;20.77;17.30;;;;;;;0.73;100.00;103757.94;6207754;23;20059;-81
2023/01/24 10:15:23;;;;;;;22.42;18.10;;;;;;;0.76;100.00;103758.03;6208916;23;20008;-81
2023/01/24 10:18:07;;;;;;;21.45;17.92;;;;;;;0.81;100.00;103760.84;6208273;23;20007;-81
2023/01/24 10:20:35;;;;;;;;;;;;;;;0.89;100.00;103756.75;6208985;23;20063;-81
2023/01/24 10:23:16;;;;;;;19.85;17.73;;;;;;;0.80;100.00;103766.91;6211185;23;19904;-80
2023/01/24 10:25:47;;;;;;;19.90;16.98;;;;;;;0.76;100.00;103758.03;6208161;23;20308;-81
2023/01/24 10:28:22;;;;;;;19.83;17.20;;;;;;;0.79;100.00;103762.50;6234565;23;19992;-81
2023/01/24 10:30:55;;;;;;;19.95;17.00;;;;;;;0.80;100.00;103759.94;6220476;23;20008;-81
2023/01/24 10:33:25;;;;;;;20.50;16.92;;;;;;;0.88;100.00;103760.19;6206263;23;20015;-82
2023/01/24 10:35:57;;;;;;;21.85;17.75;;;;;;;0.87;100.00;103755.78;6180175;23;20074;-81
2023/01/24 10:38:22;;;;;;;19.48;16.80;;;;;;;0.89;100.00;103760.28;6206549;23;20027;-80
2023/01/24 10:40:56;;;;;;;19.52;17.10;;;;;;;0.90;100.00;103758.53;6209435;23;20009;-81
2023/01/24 10:43:28;;;;;;;21.77;18.50;;;;;;;0.87;100.00;103754.06;6208870;23;20047;-81
2023/01/24 10:46:09;;;;;;;18.88;16.52;;;;;;;0.92;100.00;103759.47;6207538;23;20494;-80
2023/01/24 10:48:56;;;;;;;19.08;16.80;;;;;;;0.94;100.00;103755.19;6207234;23;20000;-81
2023/01/24 10:51:23;;;;;;;20.20;17.20;;;;;;;0.91;99.35;103753.34;6207503;23;20004;-80
2023/01/24 10:53:49;;;;;;;18.65;16.33;;;;;;;0.92;99.91;103754.22;6205825;23;20331;-81
2023/01/24 10:56:18;;;;;;;19.95;17.10;;;;;;;0.94;100.00;103752.56;6205154;23;20011;-80
2023/01/24 10:59:12;;;;;;;19.65;16.98;;;;;;;1.01;100.00;103751.06;6206597;23;20011;-80
2023/01/24 11:01:42;;;;;;;21.17;17.85;;;;;;;1.02;99.59;103751.09;6190683;23;20009;-81
2023/01/24 11:04:29;;;;;;;20.92;17.85;;;;;;;1.04;98.71;103748.53;6206008;23;20004;-81
2023/01/24 11:06:54;;;;;;;19.65;17.15;;;;;;;1.05;99.15;103740.72;6206186;23;20001;-80
2023/01/24 11:09:25;;;;;;;19.38;17.27;;;;;;;1.11;99.36;103738.31;6179192;23;20034;-81
2023/01/24 11:11:53;;;;;;;18.98;16.40;;;;;;;1.12;98.83;103737.44;6227757;23;19989;-81
2023/01/24 11:14:26;;;;;;;19.00;17.00;;;;;;;1.18;98.89;103742.03;6235222;23;20013;-81
2023/01/24 11:16:55;;;;;;;19.90;16.80;;;;;;;1.21;99.06;103743.03;6234222;23;19989;-80
2023/01/24 11:19:26;;;;;;;19.83;17.65;;;;;;;1.26;98.48;103730.06;6212056;23;20016;-81
2023/01/24 11:21:54;;;;;;;20.20;18.00;;;;;;;1.29;98.75;103730.16;6212728;23;20005;-82
2023/01/24 11:24:21;;;;;;;21.50;18.83;;;;;;;1.30;98.67;103713.59;6210977;23;20035;-81
2023/01/24 11:27:14;;;;;;;18.63;16.42;;;;;;;1.39;98.77;103721.78;6208940;23;20081;-81
2023/01/24 11:29:39;;;;;;;19.92;16.88;;;;;;;1.33;97.73;103718.91;6209553;23;20027;-80
2023/01/24 11:32:43;;;;;;;18.80;16.02;;;;;;;1.35;98.48;103724.25;6208533;23;20016;-81
2023/01/24 11:35:12;;;;;;;19.70;17.00;;;;;;;1.15;97.04;103706.09;6206749;23;20004;-81
2023/01/24 11:37:43;;;;;;;19.63;16.70;;;;;;;1.13;97.48;103712.09;6206184;23;20087;-81
2023/01/24 11:40:36;;;;;;;19.30;16.00;;;;;;;1.16;99.14;103714.84;6206623;23;20004;-81
2023/01/24 11:43:23;;;;;;;19.65;16.63;;;;;;;1.16;98.77;103718.34;6206981;23;20353;-81
2023/01/24 11:46:10;;;;;;;19.10;16.38;;;;;;;1.14;98.58;103714.81;6206619;23;20649;-81
2023/01/24 11:48:43;;;;;;;19.02;16.55;;;;;;;1.15;98.61;103718.31;6207352;23;20024;-81
2023/01/24 11:51:36;;;;;;;19.33;16.15;;;;;;;1.16;98.79;103712.22;6180361;23;20012;-81
2023/01/24 11:54:01;;;;;;;18.85;16.85;;;;;;;1.15;98.79;103699.94;6206275;23;20015;-81
2023/01/24 11:56:41;;;;;;;19.60;16.85;;;;;;;1.12;97.89;103713.84;6204942;23;20036;-81